sensor_id;sensor_type;location;lat;lon;timestamp;P1;durP1;ratioP1;P2;durP2;ratioP2
13834;SDS011;6988;52.614;13.500;2023-12-22T00:00:10;12.47;;;2.50;;
13834;SDS011;6988;52.614;13.500;2023-12-22T00:05:06;12.80;;;2.70;;
13834;SDS011;6988;52.614;13.500;2023-12-22T00:10:02;15.90;;;3.20;;
13834;SDS011;6988;52.614;13.500;2023-12-22T00:14:58;11.23;;;2.37;;
13834;SDS011;6988;52.614;13.500;2023-12-22T00:19:54;9.03;;;2.30;;
13834;SDS011;6988;52.614;13.500;2023-12-22T00:24:50;10.40;;;2.63;;
13834;SDS011;6988;52.614;13.500;2023-12-22T00:29:42;10.23;;;2.80;;
13834;SDS011;6988;52.614;13.500;2023-12-22T00:34:34;10.83;;;3.00;;
13834;SDS011;6988;52.614;13.500;2023-12-22T00:57:20;14.23;;;2.60;;
13834;SDS011;6988;52.614;13.500;2023-12-22T01:02:13;17.10;;;2.80;;
13834;SDS011;6988;52.614;13.500;2023-12-22T01:07:06;14.83;;;2.90;;
13834;SDS011;6988;52.614;13.500;2023-12-22T01:11:59;11.00;;;2.93;;
13834;SDS011;6988;52.614;13.500;2023-12-22T01:21:48;12.17;;;3.00;;
13834;SDS011;6988;52.614;13.500;2023-12-22T01:26:45;12.63;;;3.00;;
13834;SDS011;6988;52.614;13.500;2023-12-22T01:31:42;15.03;;;3.50;;
13834;SDS011;6988;52.614;13.500;2023-12-22T01:36:58;17.47;;;3.70;;
13834;SDS011;6988;52.614;13.500;2023-12-22T01:41:51;17.07;;;2.90;;
13834;SDS011;6988;52.614;13.500;2023-12-22T01:46:43;13.90;;;2.80;;
13834;SDS011;6988;52.614;13.500;2023-12-22T01:51:36;13.17;;;2.70;;
13834;SDS011;6988;52.614;13.500;2023-12-22T01:56:32;12.30;;;2.90;;
13834;SDS011;6988;52.614;13.500;2023-12-22T02:01:32;14.17;;;3.03;;
13834;SDS011;6988;52.614;13.500;2023-12-22T02:06:27;13.60;;;2.50;;
13834;SDS011;6988;52.614;13.500;2023-12-22T02:11:25;14.27;;;3.03;;
13834;SDS011;6988;52.614;13.500;2023-12-22T02:16:26;18.20;;;3.50;;
13834;SDS011;6988;52.614;13.500;2023-12-22T02:21:36;13.23;;;2.97;;
13834;SDS011;6988;52.614;13.500;2023-12-22T02:27:02;14.53;;;3.00;;
13834;SDS011;6988;52.614;13.500;2023-12-22T02:31:58;10.03;;;2.30;;
13834;SDS011;6988;52.614;13.500;2023-12-22T02:36:58;11.20;;;2.97;;
13834;SDS011;6988;52.614;13.500;2023-12-22T02:59:14;15.07;;;2.60;;
13834;SDS011;6988;52.614;13.500;2023-12-22T03:04:09;13.77;;;2.60;;
13834;SDS011;6988;52.614;13.500;2023-12-22T03:09:08;10.10;;;2.07;;
13834;SDS011;6988;52.614;13.500;2023-12-22T03:19:06;10.80;;;2.20;;
13834;SDS011;6988;52.614;13.500;2023-12-22T03:33:57;10.53;;;2.00;;
13834;SDS011;6988;52.614;13.500;2023-12-22T03:38:49;10.70;;;2.30;;
13834;SDS011;6988;52.614;13.500;2023-12-22T03:43:51;9.33;;;2.00;;
13834;SDS011;6988;52.614;13.500;2023-12-22T03:48:48;8.90;;;2.10;;
13834;SDS011;6988;52.614;13.500;2023-12-22T03:53:44;13.57;;;2.60;;
13834;SDS011;6988;52.614;13.500;2023-12-22T03:58:37;9.80;;;2.90;;
13834;SDS011;6988;52.614;13.500;2023-12-22T04:03:29;10.27;;;1.93;;
13834;SDS011;6988;52.614;13.500;2023-12-22T04:08:36;9.10;;;2.07;;
13834;SDS011;6988;52.614;13.500;2023-12-22T04:13:31;10.40;;;1.80;;
13834;SDS011;6988;52.614;13.500;2023-12-22T04:18:38;4.83;;;1.20;;
13834;SDS011;6988;52.614;13.500;2023-12-22T04:23:32;4.90;;;0.90;;
13834;SDS011;6988;52.614;13.500;2023-12-22T04:28:27;3.10;;;0.73;;
13834;SDS011;6988;52.614;13.500;2023-12-22T04:33:30;2.27;;;0.80;;
13834;SDS011;6988;52.614;13.500;2023-12-22T04:38:24;4.80;;;1.47;;
13834;SDS011;6988;52.614;13.500;2023-12-22T04:43:25;2.80;;;0.77;;
13834;SDS011;6988;52.614;13.500;2023-12-22T04:48:20;5.03;;;1.23;;
13834;SDS011;6988;52.614;13.500;2023-12-22T04:53:11;4.23;;;1.20;;
13834;SDS011;6988;52.614;13.500;2023-12-22T04:58:04;2.97;;;0.93;;
13834;SDS011;6988;52.614;13.500;2023-12-22T05:02:56;6.07;;;1.67;;
13834;SDS011;6988;52.614;13.500;2023-12-22T05:07:49;5.40;;;1.10;;
13834;SDS011;6988;52.614;13.500;2023-12-22T05:12:41;4.40;;;1.00;;
13834;SDS011;6988;52.614;13.500;2023-12-22T05:17:33;3.53;;;1.00;;
13834;SDS011;6988;52.614;13.500;2023-12-22T05:22:25;3.53;;;0.90;;
13834;SDS011;6988;52.614;13.500;2023-12-22T05:27:21;3.33;;;0.97;;
13834;SDS011;6988;52.614;13.500;2023-12-22T05:32:13;4.93;;;1.07;;
13834;SDS011;6988;52.614;13.500;2023-12-22T05:37:05;4.67;;;0.90;;
13834;SDS011;6988;52.614;13.500;2023-12-22T05:41:57;3.37;;;1.07;;
13834;SDS011;6988;52.614;13.500;2023-12-22T05:46:50;1.90;;;0.80;;
13834;SDS011;6988;52.614;13.500;2023-12-22T05:51:42;3.03;;;0.80;;
13834;SDS011;6988;52.614;13.500;2023-12-22T05:56:34;3.47;;;0.80;;
13834;SDS011;6988;52.614;13.500;2023-12-22T06:01:29;2.80;;;1.00;;
13834;SDS011;6988;52.614;13.500;2023-12-22T06:06:23;4.27;;;1.07;;
13834;SDS011;6988;52.614;13.500;2023-12-22T06:11:15;5.03;;;1.20;;
13834;SDS011;6988;52.614;13.500;2023-12-22T06:16:10;4.50;;;1.37;;
13834;SDS011;6988;52.614;13.500;2023-12-22T06:21:04;7.43;;;1.40;;
13834;SDS011;6988;52.614;13.500;2023-12-22T06:25:58;5.47;;;1.10;;
13834;SDS011;6988;52.614;13.500;2023-12-22T06:30:52;6.40;;;1.17;;
13834;SDS011;6988;52.614;13.500;2023-12-22T06:41:20;4.80;;;1.17;;
13834;SDS011;6988;52.614;13.500;2023-12-22T06:46:14;7.37;;;1.37;;
13834;SDS011;6988;52.614;13.500;2023-12-22T06:51:07;6.93;;;1.57;;
13834;SDS011;6988;52.614;13.500;2023-12-22T06:56:14;3.50;;;1.00;;
13834;SDS011;6988;52.614;13.500;2023-12-22T07:01:09;2.83;;;0.73;;
13834;SDS011;6988;52.614;13.500;2023-12-22T07:06:01;4.17;;;0.77;;
13834;SDS011;6988;52.614;13.500;2023-12-22T07:10:54;3.67;;;0.73;;
13834;SDS011;6988;52.614;13.500;2023-12-22T07:15:46;2.07;;;0.70;;
13834;SDS011;6988;52.614;13.500;2023-12-22T07:20:40;5.80;;;0.90;;
13834;SDS011;6988;52.614;13.500;2023-12-22T07:25:34;5.50;;;0.93;;
13834;SDS011;6988;52.614;13.500;2023-12-22T07:30:28;5.07;;;1.30;;
13834;SDS011;6988;52.614;13.500;2023-12-22T07:35:20;5.77;;;1.23;;
13834;SDS011;6988;52.614;13.500;2023-12-22T07:40:13;4.53;;;1.03;;
13834;SDS011;6988;52.614;13.500;2023-12-22T07:45:05;8.73;;;1.60;;
13834;SDS011;6988;52.614;13.500;2023-12-22T07:50:03;8.33;;;1.60;;
13834;SDS011;6988;52.614;13.500;2023-12-22T07:54:58;10.30;;;2.00;;
13834;SDS011;6988;52.614;13.500;2023-12-22T07:59:51;7.60;;;1.30;;
13834;SDS011;6988;52.614;13.500;2023-12-22T08:04:43;10.50;;;1.90;;
13834;SDS011;6988;52.614;13.500;2023-12-22T08:09:35;6.37;;;1.60;;
13834;SDS011;6988;52.614;13.500;2023-12-22T08:14:27;6.17;;;1.50;;
13834;SDS011;6988;52.614;13.500;2023-12-22T08:19:20;8.40;;;1.50;;
13834;SDS011;6988;52.614;13.500;2023-12-22T08:24:12;8.10;;;1.60;;
13834;SDS011;6988;52.614;13.500;2023-12-22T08:29:04;6.93;;;1.50;;
13834;SDS011;6988;52.614;13.500;2023-12-22T08:33:57;7.93;;;1.30;;
13834;SDS011;6988;52.614;13.500;2023-12-22T08:38:50;7.07;;;2.17;;
13834;SDS011;6988;52.614;13.500;2023-12-22T08:43:42;5.27;;;1.40;;
13834;SDS011;6988;52.614;13.500;2023-12-22T08:48:34;9.20;;;1.50;;
13834;SDS011;6988;52.614;13.500;2023-12-22T08:53:25;5.23;;;1.40;;
13834;SDS011;6988;52.614;13.500;2023-12-22T08:58:21;6.03;;;1.57;;
13834;SDS011;6988;52.614;13.500;2023-12-22T09:03:13;8.77;;;1.83;;
13834;SDS011;6988;52.614;13.500;2023-12-22T09:08:05;9.30;;;1.60;;
13834;SDS011;6988;52.614;13.500;2023-12-22T09:12:57;10.83;;;2.23;;
13834;SDS011;6988;52.614;13.500;2023-12-22T09:17:50;12.20;;;2.30;;
13834;SDS011;6988;52.614;13.500;2023-12-22T09:22:43;10.40;;;2.23;;
13834;SDS011;6988;52.614;13.500;2023-12-22T09:27:35;9.07;;;2.10;;
13834;SDS011;6988;52.614;13.500;2023-12-22T09:32:27;10.67;;;1.80;;
13834;SDS011;6988;52.614;13.500;2023-12-22T09:37:20;8.43;;;2.00;;
13834;SDS011;6988;52.614;13.500;2023-12-22T09:42:12;12.53;;;2.57;;
13834;SDS011;6988;52.614;13.500;2023-12-22T09:47:05;10.87;;;1.87;;
13834;SDS011;6988;52.614;13.500;2023-12-22T09:51:58;14.27;;;2.30;;
13834;SDS011;6988;52.614;13.500;2023-12-22T09:56:54;9.63;;;1.67;;
13834;SDS011;6988;52.614;13.500;2023-12-22T10:01:46;6.23;;;1.73;;
13834;SDS011;6988;52.614;13.500;2023-12-22T10:06:41;9.27;;;2.17;;
13834;SDS011;6988;52.614;13.500;2023-12-22T10:11:36;13.57;;;2.13;;
13834;SDS011;6988;52.614;13.500;2023-12-22T10:16:35;7.50;;;1.90;;
13834;SDS011;6988;52.614;13.500;2023-12-22T10:21:30;11.33;;;2.33;;
13834;SDS011;6988;52.614;13.500;2023-12-22T10:26:22;10.70;;;2.37;;
13834;SDS011;6988;52.614;13.500;2023-12-22T10:31:14;11.73;;;2.30;;
13834;SDS011;6988;52.614;13.500;2023-12-22T10:36:08;12.67;;;2.20;;
13834;SDS011;6988;52.614;13.500;2023-12-22T10:41:00;10.00;;;1.90;;
13834;SDS011;6988;52.614;13.500;2023-12-22T10:45:53;13.43;;;1.87;;
13834;SDS011;6988;52.614;13.500;2023-12-22T10:50:44;12.20;;;2.50;;
13834;SDS011;6988;52.614;13.500;2023-12-22T10:55:38;11.93;;;2.33;;
13834;SDS011;6988;52.614;13.500;2023-12-22T11:00:30;15.20;;;2.33;;
13834;SDS011;6988;52.614;13.500;2023-12-22T11:05:24;14.20;;;2.77;;
13834;SDS011;6988;52.614;13.500;2023-12-22T11:10:19;13.93;;;2.47;;
13834;SDS011;6988;52.614;13.500;2023-12-22T11:15:14;9.20;;;2.20;;
13834;SDS011;6988;52.614;13.500;2023-12-22T11:20:09;10.57;;;2.10;;
13834;SDS011;6988;52.614;13.500;2023-12-22T11:25:03;9.03;;;1.83;;
13834;SDS011;6988;52.614;13.500;2023-12-22T11:29:59;9.10;;;2.30;;
13834;SDS011;6988;52.614;13.500;2023-12-22T11:34:54;9.57;;;2.37;;
13834;SDS011;6988;52.614;13.500;2023-12-22T11:39:47;13.03;;;2.53;;
13834;SDS011;6988;52.614;13.500;2023-12-22T11:45:09;10.23;;;2.03;;
13834;SDS011;6988;52.614;13.500;2023-12-22T11:50:05;10.10;;;1.97;;
13834;SDS011;6988;52.614;13.500;2023-12-22T11:55:01;12.60;;;1.93;;
13834;SDS011;6988;52.614;13.500;2023-12-22T11:59:53;8.57;;;1.50;;
13834;SDS011;6988;52.614;13.500;2023-12-22T12:04:47;11.23;;;2.30;;
13834;SDS011;6988;52.614;13.500;2023-12-22T12:09:46;11.83;;;2.43;;
13834;SDS011;6988;52.614;13.500;2023-12-22T12:14:40;13.03;;;2.13;;
13834;SDS011;6988;52.614;13.500;2023-12-22T12:19:34;7.13;;;1.83;;
13834;SDS011;6988;52.614;13.500;2023-12-22T12:24:28;13.83;;;1.93;;
13834;SDS011;6988;52.614;13.500;2023-12-22T12:29:21;9.20;;;1.90;;
13834;SDS011;6988;52.614;13.500;2023-12-22T12:34:13;8.70;;;1.80;;
13834;SDS011;6988;52.614;13.500;2023-12-22T12:39:08;8.80;;;1.77;;
13834;SDS011;6988;52.614;13.500;2023-12-22T12:44:06;8.70;;;1.90;;
13834;SDS011;6988;52.614;13.500;2023-12-22T12:49:04;8.73;;;1.63;;
13834;SDS011;6988;52.614;13.500;2023-12-22T12:53:57;11.57;;;1.70;;
13834;SDS011;6988;52.614;13.500;2023-12-22T12:58:49;13.40;;;2.30;;
13834;SDS011;6988;52.614;13.500;2023-12-22T13:03:53;7.13;;;1.63;;
13834;SDS011;6988;52.614;13.500;2023-12-22T13:08:51;9.70;;;1.87;;
13834;SDS011;6988;52.614;13.500;2023-12-22T13:13:43;6.50;;;1.40;;
13834;SDS011;6988;52.614;13.500;2023-12-22T13:18:35;12.33;;;2.17;;
13834;SDS011;6988;52.614;13.500;2023-12-22T13:23:27;9.97;;;2.13;;
13834;SDS011;6988;52.614;13.500;2023-12-22T13:28:26;8.60;;;1.80;;
13834;SDS011;6988;52.614;13.500;2023-12-22T13:33:18;9.57;;;2.00;;
13834;SDS011;6988;52.614;13.500;2023-12-22T13:38:10;9.83;;;1.70;;
13834;SDS011;6988;52.614;13.500;2023-12-22T13:43:02;7.00;;;1.80;;
13834;SDS011;6988;52.614;13.500;2023-12-22T13:47:56;8.90;;;1.83;;
13834;SDS011;6988;52.614;13.500;2023-12-22T13:52:49;10.23;;;1.87;;
13834;SDS011;6988;52.614;13.500;2023-12-22T13:57:42;9.80;;;1.70;;
13834;SDS011;6988;52.614;13.500;2023-12-22T14:02:34;11.37;;;1.90;;
13834;SDS011;6988;52.614;13.500;2023-12-22T14:07:27;8.77;;;1.90;;
13834;SDS011;6988;52.614;13.500;2023-12-22T14:12:18;9.87;;;1.70;;
13834;SDS011;6988;52.614;13.500;2023-12-22T14:17:10;9.47;;;2.20;;
13834;SDS011;6988;52.614;13.500;2023-12-22T14:22:02;9.17;;;2.00;;
13834;SDS011;6988;52.614;13.500;2023-12-22T14:26:56;10.13;;;1.90;;
13834;SDS011;6988;52.614;13.500;2023-12-22T14:31:48;7.33;;;2.13;;
13834;SDS011;6988;52.614;13.500;2023-12-22T14:36:41;11.50;;;1.90;;
13834;SDS011;6988;52.614;13.500;2023-12-22T14:41:32;10.27;;;1.80;;
13834;SDS011;6988;52.614;13.500;2023-12-22T14:46:26;8.80;;;1.70;;
13834;SDS011;6988;52.614;13.500;2023-12-22T14:51:18;13.87;;;2.20;;
13834;SDS011;6988;52.614;13.500;2023-12-22T14:56:10;7.63;;;1.77;;
13834;SDS011;6988;52.614;13.500;2023-12-22T15:01:02;8.37;;;1.90;;
13834;SDS011;6988;52.614;13.500;2023-12-22T15:05:56;8.10;;;1.43;;
13834;SDS011;6988;52.614;13.500;2023-12-22T15:10:47;7.10;;;1.57;;
13834;SDS011;6988;52.614;13.500;2023-12-22T15:15:39;6.77;;;1.20;;
13834;SDS011;6988;52.614;13.500;2023-12-22T15:20:31;6.20;;;1.50;;
13834;SDS011;6988;52.614;13.500;2023-12-22T15:25:24;6.10;;;1.80;;
13834;SDS011;6988;52.614;13.500;2023-12-22T15:30:16;6.97;;;1.43;;
13834;SDS011;6988;52.614;13.500;2023-12-22T15:35:08;10.60;;;1.67;;
13834;SDS011;6988;52.614;13.500;2023-12-22T15:40:00;7.00;;;1.47;;
13834;SDS011;6988;52.614;13.500;2023-12-22T15:44:55;9.20;;;1.50;;
13834;SDS011;6988;52.614;13.500;2023-12-22T15:49:47;7.73;;;1.60;;
13834;SDS011;6988;52.614;13.500;2023-12-22T15:54:58;8.40;;;1.77;;
13834;SDS011;6988;52.614;13.500;2023-12-22T15:59:50;6.57;;;1.90;;
13834;SDS011;6988;52.614;13.500;2023-12-22T16:04:43;8.07;;;1.53;;
13834;SDS011;6988;52.614;13.500;2023-12-22T16:09:35;9.77;;;1.90;;
13834;SDS011;6988;52.614;13.500;2023-12-22T16:14:27;9.67;;;1.97;;
13834;SDS011;6988;52.614;13.500;2023-12-22T16:19:19;11.27;;;2.00;;
13834;SDS011;6988;52.614;13.500;2023-12-22T16:24:12;10.13;;;1.77;;
13834;SDS011;6988;52.614;13.500;2023-12-22T16:29:04;9.40;;;1.80;;
13834;SDS011;6988;52.614;13.500;2023-12-22T16:33:56;8.00;;;1.70;;
13834;SDS011;6988;52.614;13.500;2023-12-22T16:38:47;8.83;;;1.80;;
13834;SDS011;6988;52.614;13.500;2023-12-22T16:43:40;8.90;;;1.80;;
13834;SDS011;6988;52.614;13.500;2023-12-22T16:48:34;8.70;;;1.50;;
13834;SDS011;6988;52.614;13.500;2023-12-22T16:53:25;9.90;;;1.93;;
13834;SDS011;6988;52.614;13.500;2023-12-22T16:58:17;6.80;;;1.60;;
13834;SDS011;6988;52.614;13.500;2023-12-22T17:03:10;7.07;;;1.93;;
13834;SDS011;6988;52.614;13.500;2023-12-22T17:08:02;9.77;;;1.60;;
13834;SDS011;6988;52.614;13.500;2023-12-22T17:12:55;9.30;;;1.97;;
13834;SDS011;6988;52.614;13.500;2023-12-22T17:17:46;8.57;;;1.70;;
13834;SDS011;6988;52.614;13.500;2023-12-22T17:22:39;9.73;;;2.23;;
13834;SDS011;6988;52.614;13.500;2023-12-22T17:27:31;9.67;;;1.70;;
13834;SDS011;6988;52.614;13.500;2023-12-22T17:32:23;7.20;;;1.90;;
13834;SDS011;6988;52.614;13.500;2023-12-22T17:37:16;8.10;;;1.43;;
13834;SDS011;6988;52.614;13.500;2023-12-22T17:42:09;8.60;;;1.73;;
13834;SDS011;6988;52.614;13.500;2023-12-22T17:47:00;6.10;;;1.60;;
13834;SDS011;6988;52.614;13.500;2023-12-22T17:51:54;6.57;;;1.43;;
13834;SDS011;6988;52.614;13.500;2023-12-22T17:56:46;6.83;;;1.63;;
13834;SDS011;6988;52.614;13.500;2023-12-22T18:01:41;9.23;;;2.00;;
13834;SDS011;6988;52.614;13.500;2023-12-22T18:06:34;6.10;;;1.20;;
13834;SDS011;6988;52.614;13.500;2023-12-22T18:11:26;10.10;;;1.93;;
13834;SDS011;6988;52.614;13.500;2023-12-22T18:16:18;8.03;;;2.20;;
13834;SDS011;6988;52.614;13.500;2023-12-22T18:21:12;8.20;;;1.80;;
13834;SDS011;6988;52.614;13.500;2023-12-22T18:26:04;11.20;;;2.07;;
13834;SDS011;6988;52.614;13.500;2023-12-22T18:30:55;9.23;;;1.60;;
13834;SDS011;6988;52.614;13.500;2023-12-22T18:35:48;5.37;;;1.70;;
13834;SDS011;6988;52.614;13.500;2023-12-22T18:40:41;7.90;;;1.63;;
13834;SDS011;6988;52.614;13.500;2023-12-22T18:45:33;9.83;;;2.00;;
13834;SDS011;6988;52.614;13.500;2023-12-22T18:50:25;6.17;;;2.23;;
13834;SDS011;6988;52.614;13.500;2023-12-22T18:55:16;7.27;;;1.70;;
13834;SDS011;6988;52.614;13.500;2023-12-22T19:00:11;8.00;;;1.80;;
13834;SDS011;6988;52.614;13.500;2023-12-22T19:05:05;10.37;;;2.07;;
13834;SDS011;6988;52.614;13.500;2023-12-22T19:09:58;8.90;;;2.00;;
13834;SDS011;6988;52.614;13.500;2023-12-22T19:14:49;8.37;;;1.87;;
13834;SDS011;6988;52.614;13.500;2023-12-22T19:19:42;19.83;;;2.80;;
13834;SDS011;6988;52.614;13.500;2023-12-22T19:24:34;10.00;;;1.93;;
13834;SDS011;6988;52.614;13.500;2023-12-22T19:29:26;8.40;;;1.87;;
13834;SDS011;6988;52.614;13.500;2023-12-22T19:34:18;11.80;;;2.57;;
13834;SDS011;6988;52.614;13.500;2023-12-22T19:39:11;7.27;;;1.77;;
13834;SDS011;6988;52.614;13.500;2023-12-22T19:44:03;7.87;;;1.97;;
13834;SDS011;6988;52.614;13.500;2023-12-22T19:48:55;10.33;;;1.93;;
13834;SDS011;6988;52.614;13.500;2023-12-22T19:53:47;8.83;;;1.60;;
13834;SDS011;6988;52.614;13.500;2023-12-22T19:58:40;10.93;;;1.93;;
13834;SDS011;6988;52.614;13.500;2023-12-22T20:03:32;12.00;;;1.97;;
13834;SDS011;6988;52.614;13.500;2023-12-22T20:08:24;11.10;;;1.83;;
13834;SDS011;6988;52.614;13.500;2023-12-22T20:13:16;10.27;;;1.93;;
13834;SDS011;6988;52.614;13.500;2023-12-22T20:18:09;6.77;;;1.50;;
13834;SDS011;6988;52.614;13.500;2023-12-22T20:23:01;7.27;;;1.37;;
13834;SDS011;6988;52.614;13.500;2023-12-22T20:27:53;8.63;;;1.83;;
13834;SDS011;6988;52.614;13.500;2023-12-22T20:32:45;7.20;;;1.90;;
13834;SDS011;6988;52.614;13.500;2023-12-22T20:37:39;10.30;;;2.37;;
13834;SDS011;6988;52.614;13.500;2023-12-22T20:42:31;8.70;;;2.00;;
13834;SDS011;6988;52.614;13.500;2023-12-22T20:47:22;7.07;;;1.70;;
13834;SDS011;6988;52.614;13.500;2023-12-22T20:52:14;8.43;;;1.73;;
13834;SDS011;6988;52.614;13.500;2023-12-22T20:57:07;5.80;;;1.60;;
13834;SDS011;6988;52.614;13.500;2023-12-22T21:01:59;6.93;;;1.40;;
13834;SDS011;6988;52.614;13.500;2023-12-22T21:06:51;6.07;;;1.40;;
13834;SDS011;6988;52.614;13.500;2023-12-22T21:11:43;5.90;;;1.10;;
13834;SDS011;6988;52.614;13.500;2023-12-22T21:16:36;2.20;;;0.80;;
13834;SDS011;6988;52.614;13.500;2023-12-22T21:21:34;2.70;;;0.70;;
13834;SDS011;6988;52.614;13.500;2023-12-22T21:26:32;3.10;;;0.77;;
13834;SDS011;6988;52.614;13.500;2023-12-22T21:31:23;4.03;;;2.13;;
13834;SDS011;6988;52.614;13.500;2023-12-22T21:36:20;3.47;;;0.80;;
13834;SDS011;6988;52.614;13.500;2023-12-22T21:41:13;6.30;;;3.87;;
13834;SDS011;6988;52.614;13.500;2023-12-22T21:46:06;4.47;;;0.80;;
13834;SDS011;6988;52.614;13.500;2023-12-22T21:50:58;2.77;;;0.77;;
13834;SDS011;6988;52.614;13.500;2023-12-22T21:55:51;3.13;;;0.67;;
13834;SDS011;6988;52.614;13.500;2023-12-22T22:00:45;4.00;;;0.90;;
13834;SDS011;6988;52.614;13.500;2023-12-22T22:05:37;2.77;;;0.90;;
13834;SDS011;6988;52.614;13.500;2023-12-22T22:10:29;3.00;;;0.90;;
13834;SDS011;6988;52.614;13.500;2023-12-22T22:15:22;4.47;;;1.00;;
13834;SDS011;6988;52.614;13.500;2023-12-22T22:20:15;2.43;;;0.60;;
13834;SDS011;6988;52.614;13.500;2023-12-22T22:25:07;2.43;;;0.73;;
13834;SDS011;6988;52.614;13.500;2023-12-22T22:29:59;3.57;;;0.90;;
13834;SDS011;6988;52.614;13.500;2023-12-22T22:34:55;4.73;;;0.80;;
13834;SDS011;6988;52.614;13.500;2023-12-22T22:39:47;4.27;;;0.73;;
13834;SDS011;6988;52.614;13.500;2023-12-22T22:44:39;2.57;;;1.17;;
13834;SDS011;6988;52.614;13.500;2023-12-22T23:14:33;2.17;;;0.80;;
13834;SDS011;6988;52.614;13.500;2023-12-22T23:19:25;3.47;;;0.60;;
13834;SDS011;6988;52.614;13.500;2023-12-22T23:24:17;3.90;;;0.80;;
13834;SDS011;6988;52.614;13.500;2023-12-22T23:29:08;3.43;;;0.70;;
13834;SDS011;6988;52.614;13.500;2023-12-22T23:34:02;3.43;;;0.87;;
13834;SDS011;6988;52.614;13.500;2023-12-22T23:38:54;3.07;;;1.33;;
13834;SDS011;6988;52.614;13.500;2023-12-22T23:43:46;3.90;;;0.50;;
13834;SDS011;6988;52.614;13.500;2023-12-22T23:48:38;1.80;;;0.60;;
13834;SDS011;6988;52.614;13.500;2023-12-22T23:53:31;1.77;;;0.43;;
13834;SDS011;6988;52.614;13.500;2023-12-22T23:58:24;1.63;;;0.40;;
